Time;durP1;ratioP1;P1;durP2;ratioP2;P2;SDS_P1;SDS_P2;PMS_P1;PMS_P2;Temp;Humidity;BMP_temperature;BMP_pressure;BME280_temperature;BME280_humidity;BME280_pressure;Samples;Min_cycle;Max_cycle;Signal;HPM_P1;HPM_P2
2022/06/16 06:17:11;;;;;;;9.63;8.63;;;;;;;;;;6186744;23;20055;-83
2022/06/16 09:38:02;;;;;;;10.00;8.80;;;;;;;;;;6187691;23;20313;-81
2022/06/16 09:40:58;;;;;;;9.63;8.25;;;;;;;;;;6217214;23;20012;-85
2022/06/16 09:43:32;;;;;;;10.02;9.13;;;;;;;;;;6145923;23;20095;-88
2022/06/16 09:46:08;;;;;;;8.98;8.18;;;;;;;;;;6217880;23;20005;-88
2022/06/16 09:48:40;;;;;;;9.35;8.35;;;;;;;;;;6219291;23;20005;-88
2022/06/16 09:51:17;;;;;;;10.85;8.85;;;;;;;;;;6217923;23;20001;-86
2022/06/16 09:53:49;;;;;;;11.82;8.60;;;;;;;;;;6217018;23;20062;-85
2022/06/16 09:56:33;;;;;;;9.60;8.80;;;;;;;;;;6217305;23;20071;-85
2022/06/16 09:59:06;;;;;;;10.50;9.10;;;;;;;;;;6217334;23;20009;-86
2022/06/16 10:01:39;;;;;;;10.80;9.80;;;;;;;;;;6216839;23;19997;-84
2022/06/16 10:04:06;;;;;;;10.38;9.30;;;;;;;;;;6216640;23;20079;-85
2022/06/16 10:06:58;;;;;;;9.50;8.52;;;;;;;;;;6216737;23;20005;-84
2022/06/16 10:09:43;;;;;;;11.38;9.80;;;;;;;;;;6216569;23;20009;-85
2022/06/16 10:12:38;;;;;;;9.93;9.02;;;;;;;;;;6189962;23;20424;-86
2022/06/16 10:15:18;;;;;;;12.13;10.80;;;;;;;;;;6216625;23;20046;-82
2022/06/16 10:17:45;;;;;;;11.57;10.48;;;;;;;;;;6216435;23;20412;-82
2022/06/16 10:20:14;;;;;;;10.85;9.82;;;;;;;;;;6216870;23;20000;-81
2022/06/16 10:22:45;;;;;;;11.85;10.40;;;;;;;;;;6216108;23;20011;-81
2022/06/16 10:25:17;;;;;;;10.70;9.73;;;;;;;;;;6216942;23;20004;-82
2022/06/16 10:27:51;;;;;;;11.60;10.40;;;;;;;;;;6190013;23;20009;-81
2022/06/16 10:30:22;;;;;;;10.93;9.95;;;;;;;;;;6216221;23;20416;-84
2022/06/16 10:32:59;;;;;;;11.20;10.15;;;;;;;;;;6216344;23;19997;-81
2022/06/16 10:35:25;;;;;;;11.27;9.88;;;;;;;;;;6190177;23;20430;-81
2022/06/16 10:37:53;;;;;;;11.38;10.18;;;;;;;;;;6216082;23;20036;-83
2022/06/16 10:40:25;;;;;;;11.38;9.32;;;;;;;;;;6216391;23;20332;-81
2022/06/16 10:42:57;;;;;;;13.95;11.57;;;;;;;;;;6216150;23;19996;-80
2022/06/16 10:45:26;;;;;;;13.43;11.30;;;;;;;;;;6216589;23;20116;-81
2022/06/16 10:48:03;;;;;;;13.63;11.45;;;;;;;;;;6216535;23;20437;-79
2022/06/16 10:50:41;;;;;;;12.45;11.35;;;;;;;;;;6216596;23;20009;-81
2022/06/16 10:53:51;;;;;;;11.88;10.82;;;;;;;;;;6216065;23;20031;-81
2022/06/16 10:56:20;;;;;;;12.82;11.57;;;;;;;;;;6150045;23;20030;-81
2022/06/16 10:59:02;;;;;;;12.80;11.68;;;;;;;;;;6216111;23;20009;-79
2022/06/16 11:01:35;;;;;;;12.00;11.10;;;;;;;;;;6216164;23;20368;-81
2022/06/16 11:04:13;;;;;;;11.02;9.93;;;;;;;;;;6216098;23;20005;-81
2022/06/16 11:06:45;;;;;;;11.70;10.50;;;;;;;;;;6216281;23;20039;-81
2022/06/16 11:09:17;;;;;;;11.20;10.15;;;;;;;;;;6216407;23;20008;-82
2022/06/16 11:11:52;;;;;;;11.13;10.13;;;;;;;;;;6215799;23;20016;-81
2022/06/16 11:14:23;;;;;;;9.75;8.85;;;;;;;;;;6216077;23;20436;-81
2022/06/16 11:16:51;;;;;;;12.43;11.23;;;;;;;;;;6216080;23;19997;-80
2022/06/16 11:19:30;;;;;;;10.57;9.57;;;;;;;;;;6216138;23;20080;-80
2022/06/16 11:21:56;;;;;;;13.43;9.35;;;;;;;;;;6216106;23;20436;-80
2022/06/16 11:24:29;;;;;;;9.85;8.95;;;;;;;;;;6215900;23;20023;-81
2022/06/16 11:27:12;;;;;;;8.85;8.00;;;;;;;;;;6216252;23;20008;-80
2022/06/16 11:29:38;;;;;;;8.88;7.93;;;;;;;;;;6216089;23;20000;-80
2022/06/16 11:32:03;;;;;;;8.43;7.72;;;;;;;;;;6216334;23;20011;-80
2022/06/16 11:34:29;;;;;;;8.82;8.07;;;;;;;;;;6217380;23;20023;-81
2022/06/16 11:37:05;;;;;;;8.80;8.10;;;;;;;;;;6217991;23;20320;-82
2022/06/16 11:40:00;;;;;;;9.38;8.60;;;;;;;;;;6220110;23;20443;-82
2022/06/16 11:42:59;;;;;;;8.10;7.35;;;;;;;;;;6191228;23;20008;-83
2022/06/16 11:45:36;;;;;;;9.38;8.55;;;;;;;;;;6217963;23;20004;-82
2022/06/16 15:41:49;;;;;;;10.20;7.10;;;;;;;;;;6213738;23;20013;-82
2022/06/16 15:44:36;;;;;;;7.88;7.07;;;;;;;;;;6216171;23;20020;-82
2022/06/16 15:47:14;;;;;;;8.43;6.72;;;;;;;;;;6196215;23;20024;-83
2022/06/16 15:49:47;;;;;;;10.75;9.82;;;;;;;;;;6189898;23;19997;-83
2022/06/16 15:52:22;;;;;;;9.93;8.95;;;;;;;;;;6216030;23;20480;-82
2022/06/16 15:54:53;;;;;;;10.98;9.95;;;;;;;;;;6215797;23;20079;-85
2022/06/16 15:57:19;;;;;;;8.32;7.63;;;;;;;;;;6189006;23;20004;-82
2022/06/16 15:59:51;;;;;;;8.27;7.57;;;;;;;;;;6216075;23;20012;-83
2022/06/16 16:02:19;;;;;;;8.52;7.82;;;;;;;;;;6216174;23;20012;-83
2022/06/16 16:04:45;;;;;;;8.82;7.85;;;;;;;;;;6216067;23;20000;-83
2022/06/16 16:07:11;;;;;;;8.20;7.40;;;;;;;;;;6215785;23;20002;-85
2022/06/16 16:09:37;;;;;;;7.72;7.07;;;;;;;;;;6216050;23;19997;-82
2022/06/16 16:12:24;;;;;;;7.80;6.80;;;;;;;;;;6215923;23;20005;-82
2022/06/16 16:14:56;;;;;;;7.25;6.25;;;;;;;;;;6215931;23;20011;-82
2022/06/16 16:17:41;;;;;;;7.03;6.30;;;;;;;;;;6215873;23;19997;-83
2022/06/16 16:20:07;;;;;;;6.88;6.18;;;;;;;;;;6215979;23;20412;-82
2022/06/16 16:22:33;;;;;;;7.15;5.05;;;;;;;;;;6218088;23;20115;-82
2022/06/16 16:24:58;;;;;;;6.60;4.85;;;;;;;;;;6217976;23;20000;-84
2022/06/16 16:27:26;;;;;;;5.45;5.00;;;;;;;;;;6217835;23;20001;-84
2022/06/16 16:29:55;;;;;;;6.75;4.20;;;;;;;;;;6217787;23;19997;-85
2022/06/16 16:32:32;;;;;;;6.47;3.63;;;;;;;;;;6218641;23;20499;-90
2022/06/16 16:35:00;;;;;;;7.50;4.82;;;;;;;;;;6220905;23;20088;-91
2022/06/16 16:37:35;;;;;;;4.78;3.35;;;;;;;;;;6194088;23;20008;-94
2022/06/16 16:40:03;;;;;;;6.25;3.30;;;;;;;;;;6219334;23;19997;-94
2022/06/16 16:45:28;;;;;;;5.35;3.10;;;;;;;;;;6218726;23;20015;-93
2022/06/16 16:48:06;;;;;;;6.93;3.35;;;;;;;;;;6218186;23;20075;-84
2022/06/16 16:50:37;;;;;;;6.35;2.97;;;;;;;;;;6217695;23;20007;-83
2022/06/16 16:53:12;;;;;;;3.25;2.88;;;;;;;;;;6217423;23;20011;-86
2022/06/16 16:55:38;;;;;;;6.05;4.30;;;;;;;;;;6217932;23;20035;-83
2022/06/16 16:58:05;;;;;;;8.10;5.45;;;;;;;;;;6218101;23;20012;-84
2022/06/16 17:00:33;;;;;;;6.32;4.72;;;;;;;;;;6218190;23;20008;-83
2022/06/16 17:02:58;;;;;;;6.13;4.82;;;;;;;;;;6218483;23;20001;-84
2022/06/16 17:05:24;;;;;;;7.10;4.38;;;;;;;;;;6192106;23;20434;-83
2022/06/16 17:07:50;;;;;;;8.57;5.40;;;;;;;;;;6217582;23;20027;-82
2022/06/16 17:10:15;;;;;;;8.35;4.53;;;;;;;;;;6190883;23;20317;-81
2022/06/16 17:12:44;;;;;;;6.75;3.75;;;;;;;;;;6218525;23;20001;-86
2022/06/16 17:15:12;;;;;;;7.05;4.07;;;;;;;;;;6222310;23;20000;-84
2022/06/16 17:17:39;;;;;;;6.68;4.50;;;;;;;;;;6219030;23;20009;-85
2022/06/16 17:20:06;;;;;;;4.60;4.18;;;;;;;;;;6221634;23;20000;-89
2022/06/16 17:22:31;;;;;;;8.13;4.50;;;;;;;;;;6230007;23;20483;-86
2022/06/16 17:24:57;;;;;;;8.30;4.15;;;;;;;;;;6222551;23;20008;-87
2022/06/16 17:27:23;;;;;;;7.00;3.80;;;;;;;;;;6198657;23;20452;-87
2022/06/16 17:29:49;;;;;;;6.78;4.20;;;;;;;;;;6223722;23;20003;-87
2022/06/16 17:32:17;;;;;;;6.68;4.40;;;;;;;;;;6220108;23;20348;-87
2022/06/16 17:34:45;;;;;;;5.13;4.10;;;;;;;;;;6212249;23;20009;-94
2022/06/16 17:37:31;;;;;;;6.68;4.57;;;;;;;;;;6203335;23;20054;-92
2022/06/16 17:39:58;;;;;;;6.63;4.40;;;;;;;;;;6208411;23;20064;-93
2022/06/16 17:42:24;;;;;;;4.90;4.45;;;;;;;;;;6232218;23;20052;-93
2022/06/16 20:26:56;;;;;;;8.67;7.93;;;;;;;;;;6158393;23;20013;-88
2022/06/16 20:29:22;;;;;;;8.77;7.32;;;;;;;;;;6187721;23;20436;-90
2022/06/16 20:31:47;;;;;;;8.23;7.15;;;;;;;;;;6188129;23;20029;-88
2022/06/16 20:34:16;;;;;;;7.78;7.07;;;;;;;;;;6187776;23;20001;-91
2022/06/16 20:36:42;;;;;;;9.07;7.95;;;;;;;;;;6187697;23;20013;-89
2022/06/16 20:39:09;;;;;;;8.85;7.95;;;;;;;;;;6186603;23;20510;-92
2022/06/16 20:44:20;;;;;;;7.93;7.13;;;;;;;;;;6188078;23;20012;-89
2022/06/16 20:46:46;;;;;;;8.88;7.97;;;;;;;;;;6188011;23;20075;-92
2022/06/16 20:49:18;;;;;;;8.70;7.80;;;;;;;;;;6187867;23;20517;-91
2022/06/16 20:51:44;;;;;;;9.45;7.40;;;;;;;;;;6187934;23;20001;-91
2022/06/16 20:54:10;;;;;;;8.45;7.60;;;;;;;;;;6186545;23;20005;-92
2022/06/16 20:56:36;;;;;;;11.65;8.13;;;;;;;;;;6188245;23;20009;-94
2022/06/16 21:01:54;;;;;;;9.63;7.60;;;;;;;;;;6187964;23;20016;-92
2022/06/16 21:04:25;;;;;;;9.75;8.32;;;;;;;;;;6186926;23;20088;-94
2022/06/16 21:06:51;;;;;;;10.20;8.98;;;;;;;;;;6189032;23;20049;-92
2022/06/16 21:09:16;;;;;;;8.50;7.72;;;;;;;;;;6188033;23;20009;-93
2022/06/16 21:14:28;;;;;;;9.90;7.70;;;;;;;;;;6187648;23;20015;-92
2022/06/16 21:16:55;;;;;;;8.60;7.10;;;;;;;;;;6187772;23;20080;-92
2022/06/16 21:19:21;;;;;;;7.80;7.10;;;;;;;;;;6187389;23;20012;-93
2022/06/16 21:21:46;;;;;;;8.43;7.50;;;;;;;;;;6187566;23;20005;-93
